createdAt,value
2019-04-24T00:02:21.794Z,16.50
2019-04-24T00:04:38.168Z,16.50
2019-04-24T00:07:07.502Z,16.50
2019-04-24T00:09:44.934Z,16.60
2019-04-24T00:15:30.531Z,16.60
2019-04-24T00:18:04.576Z,16.70
2019-04-24T00:20:30.552Z,16.60
2019-04-24T00:23:05.460Z,16.50
2019-04-24T00:27:58.128Z,16.60
2019-04-24T00:30:24.503Z,16.70
2019-04-24T00:33:03.460Z,16.80
2019-04-24T00:35:30.952Z,16.70
2019-04-24T00:38:04.927Z,16.80
2019-04-24T00:40:22.636Z,16.70
2019-04-24T00:42:59.728Z,16.70
2019-04-24T00:45:37.271Z,16.80
2019-04-24T00:47:58.932Z,16.80
2019-04-24T00:50:19.765Z,16.80
2019-04-24T00:53:21.920Z,17.00
2019-04-24T00:55:16.722Z,17.00
2019-04-24T00:58:11.530Z,17.00
2019-04-24T01:00:24.887Z,17.00
2019-04-24T01:03:12.251Z,17.00
2019-04-24T01:06:00.126Z,17.00
2019-04-24T01:11:01.653Z,16.90
2019-04-24T01:13:28.005Z,16.90
2019-04-24T01:16:15.962Z,16.70
2019-04-24T01:21:06.653Z,16.80
2019-04-24T01:23:26.888Z,16.80
2019-04-24T01:28:33.590Z,16.60
2019-04-24T01:33:56.606Z,16.70
2019-04-24T01:36:46.162Z,16.50
2019-04-24T01:39:34.481Z,16.60
2019-04-24T01:41:59.979Z,16.50
2019-04-24T01:44:32.072Z,16.50
2019-04-24T01:47:00.019Z,16.40
2019-04-24T01:49:30.988Z,16.40
2019-04-24T01:54:30.140Z,16.30
2019-04-24T01:59:42.015Z,16.20
2019-04-24T02:02:08.140Z,16.20
2019-04-24T02:04:33.973Z,16.20
2019-04-24T02:07:08.877Z,16.20
2019-04-24T02:10:28.805Z,16.30
2019-04-24T02:12:47.993Z,16.30
2019-04-24T02:15:15.294Z,16.10
2019-04-24T02:17:47.305Z,16.10
2019-04-24T02:20:19.095Z,16.20
2019-04-24T02:22:45.405Z,16.20
2019-04-24T02:25:20.274Z,16.00
2019-04-24T02:30:19.390Z,16.00
2019-04-24T02:33:19.867Z,16.10
2019-04-24T02:38:21.951Z,16.30
2019-04-24T02:41:12.786Z,16.40
2019-04-24T02:46:27.115Z,16.80
2019-04-24T02:49:04.412Z,16.80
2019-04-24T02:56:16.574Z,16.80
2019-04-24T02:58:50.128Z,17.00
2019-04-24T03:01:07.234Z,17.00
2019-04-24T03:03:54.533Z,17.00
2019-04-24T03:08:51.716Z,16.90
2019-04-24T03:11:16.386Z,16.90
2019-04-24T03:14:08.976Z,16.90
2019-04-24T03:37:32.618Z,16.60
2019-04-24T03:40:05.035Z,16.70
2019-04-24T03:45:04.400Z,16.60
2019-04-24T03:47:26.945Z,16.60
2019-04-24T03:49:49.697Z,16.60
2019-04-24T03:55:09.977Z,16.60
2019-04-24T03:57:53.994Z,16.60
2019-04-24T04:00:46.724Z,16.70
2019-04-24T04:03:11.639Z,16.80
2019-04-24T04:05:32.986Z,16.80
2019-04-24T04:08:18.237Z,16.80
2019-04-24T04:10:39.267Z,16.70
2019-04-24T04:15:26.540Z,16.90
2019-04-24T04:20:58.923Z,17.10
2019-04-24T04:29:15.566Z,17.30
2019-04-24T04:31:48.517Z,17.30
2019-04-24T04:37:03.719Z,17.30
2019-04-24T04:39:40.701Z,17.40
2019-04-24T04:42:16.839Z,17.50
2019-04-24T04:47:18.194Z,17.50
2019-04-24T04:58:00.710Z,17.60
2019-04-24T05:08:16.539Z,17.60
2019-04-24T05:15:40.406Z,17.70
2019-04-24T05:20:40.880Z,17.80
2019-04-24T05:23:05.428Z,17.90
2019-04-24T05:25:59.657Z,17.90
2019-04-24T05:28:36.983Z,18.00
2019-04-24T05:30:50.474Z,18.10
2019-04-24T05:36:20.224Z,18.10
2019-04-24T05:39:20.399Z,18.20
2019-04-24T05:44:06.807Z,18.30
2019-04-24T05:46:33.276Z,18.40
2019-04-24T05:49:03.691Z,18.40
2019-04-24T05:51:44.181Z,18.50
2019-04-24T05:54:32.017Z,18.60
2019-04-24T05:57:41.141Z,18.60
2019-04-24T05:59:57.488Z,18.60
2019-04-24T06:05:05.907Z,18.70
2019-04-24T06:08:03.851Z,18.60
2019-04-24T06:10:44.517Z,18.60
2019-04-24T06:13:21.092Z,18.80
2019-04-24T06:15:54.741Z,18.80
2019-04-24T06:26:15.861Z,18.90
2019-04-24T06:29:14.650Z,19.00
2019-04-24T06:31:10.287Z,19.00
2019-04-24T06:33:49.644Z,19.10
2019-04-24T06:37:00.947Z,19.00
2019-04-24T06:42:02.093Z,19.40
2019-04-24T06:47:39.699Z,20.00
2019-04-24T06:49:25.923Z,20.30
2019-04-24T07:00:05.390Z,23.90
2019-04-24T07:02:35.565Z,25.70
2019-04-24T07:16:33.830Z,28.10
2019-04-24T07:18:34.559Z,25.90
2019-04-24T07:21:32.289Z,24.40
2019-04-24T07:24:01.565Z,23.30
2019-04-24T07:26:31.961Z,22.60
2019-04-24T07:29:03.674Z,22.20
2019-04-24T07:31:53.732Z,21.70
2019-04-24T07:34:30.244Z,21.50
2019-04-24T07:36:52.793Z,21.00
2019-04-24T07:42:10.517Z,22.00
2019-04-24T07:44:43.936Z,21.60
2019-04-24T07:54:52.450Z,20.80
2019-04-24T08:00:11.310Z,20.60
2019-04-24T08:08:02.562Z,20.40
2019-04-24T08:11:02.310Z,20.30
2019-04-24T08:15:45.125Z,20.40
2019-04-24T08:36:25.175Z,21.00
2019-04-24T08:39:29.282Z,21.20
2019-04-24T08:42:40.871Z,21.30
2019-04-24T08:50:11.911Z,21.20
2019-04-24T08:52:47.675Z,21.30
2019-04-24T08:55:06.027Z,21.10
2019-04-24T09:00:27.192Z,21.00
2019-04-24T09:08:42.607Z,20.60
2019-04-24T09:14:10.662Z,21.10
2019-04-24T09:16:37.133Z,21.40
2019-04-24T09:21:30.654Z,22.10
2019-04-24T09:24:35.304Z,22.10
2019-04-24T09:29:39.206Z,22.50
2019-04-24T09:32:31.062Z,22.70
2019-04-24T09:34:28.300Z,22.70
2019-04-24T09:37:19.881Z,22.60
2019-04-24T09:43:17.641Z,22.60
2019-04-24T09:45:25.981Z,22.40
2019-04-24T09:48:02.689Z,22.60
2019-04-24T09:50:31.233Z,23.10
2019-04-24T09:53:20.772Z,24.00
2019-04-24T09:55:43.772Z,24.60
2019-04-24T10:01:17.363Z,25.50
2019-04-24T10:03:31.747Z,25.80
2019-04-24T10:08:37.005Z,26.30
2019-04-24T10:13:43.705Z,26.30
2019-04-24T10:16:11.098Z,26.50
2019-04-24T10:19:25.130Z,26.20
2019-04-24T10:21:38.424Z,26.60
2019-04-24T10:24:32.780Z,26.80
2019-04-24T10:26:55.082Z,26.80
2019-04-24T10:32:19.824Z,26.20
2019-04-24T10:43:30.908Z,26.50
2019-04-24T10:46:31.054Z,26.60
2019-04-24T10:48:53.819Z,27.00
2019-04-24T10:51:35.787Z,27.10
2019-04-24T10:56:30.650Z,27.10
2019-04-24T10:58:52.333Z,26.60
2019-04-24T11:01:51.895Z,26.80
2019-04-24T11:04:54.923Z,26.30
2019-04-24T11:13:17.495Z,26.50
2019-04-24T11:19:08.245Z,26.60
2019-04-24T11:29:15.422Z,26.90
2019-04-24T11:32:14.159Z,27.30
2019-04-24T11:34:58.124Z,27.80
2019-04-24T11:37:43.521Z,27.60
2019-04-24T11:42:51.163Z,27.40
2019-04-24T11:45:44.769Z,27.40
2019-04-24T11:48:39.723Z,27.50
2019-04-24T11:53:31.639Z,27.70
2019-04-24T11:56:15.990Z,27.40
2019-04-24T12:04:24.206Z,27.50
2019-04-24T12:09:08.949Z,27.10
2019-04-24T12:11:48.382Z,27.00
2019-04-24T12:14:45.006Z,27.10
2019-04-24T12:17:15.220Z,27.10
2019-04-24T12:22:28.390Z,27.40
2019-04-24T12:24:56.760Z,27.10
2019-04-24T12:27:28.293Z,27.20
2019-04-24T12:29:59.065Z,27.30
2019-04-24T12:32:43.445Z,27.40
2019-04-24T12:35:21.759Z,27.00
2019-04-24T12:38:04.750Z,27.10
2019-04-24T12:40:48.373Z,27.20
2019-04-24T12:43:45.477Z,27.50
2019-04-24T12:46:19.362Z,27.60
2019-04-24T12:48:32.555Z,27.90
2019-04-24T12:53:47.451Z,28.20
2019-04-24T12:56:14.855Z,28.00
2019-04-24T13:04:50.968Z,27.40
2019-04-24T13:06:53.406Z,27.70
2019-04-24T13:12:41.615Z,27.80
2019-04-24T13:19:36.865Z,28.30
2019-04-24T13:22:13.305Z,28.20
2019-04-24T13:25:18.512Z,27.80
2019-04-24T13:28:21.049Z,27.70
2019-04-24T13:30:42.544Z,27.60
2019-04-24T13:33:18.037Z,27.60
2019-04-24T13:35:52.625Z,27.40
2019-04-24T13:40:53.745Z,27.30
2019-04-24T13:43:33.831Z,27.30
2019-04-24T13:48:37.596Z,28.10
2019-04-24T13:53:34.084Z,27.70
2019-04-24T14:01:30.667Z,27.10
2019-04-24T14:04:00.716Z,27.10
2019-04-24T14:06:28.861Z,27.40
2019-04-24T14:11:41.148Z,27.80
2019-04-24T14:13:59.624Z,27.90
2019-04-24T14:19:09.135Z,27.60
2019-04-24T14:21:33.770Z,27.50
2019-04-24T14:24:08.026Z,27.60
2019-04-24T14:26:35.785Z,28.00
2019-04-24T14:31:53.285Z,27.80
2019-04-24T14:34:13.001Z,27.80
2019-04-24T14:39:20.854Z,28.10
2019-04-24T14:41:41.277Z,28.20
2019-04-24T14:47:26.610Z,27.80
2019-04-24T14:55:12.980Z,27.50
2019-04-24T15:00:03.631Z,27.60
2019-04-24T15:02:40.853Z,27.70
2019-04-24T15:10:07.987Z,27.80
2019-04-24T15:12:35.263Z,27.80
2019-04-24T15:18:04.552Z,27.40
2019-04-24T15:20:30.669Z,27.40
2019-04-24T15:23:01.323Z,27.20
2019-04-24T15:25:36.590Z,27.20
2019-04-24T15:30:33.892Z,27.00
2019-04-24T15:32:59.204Z,26.90
2019-04-24T15:35:29.471Z,26.70
2019-04-24T15:37:57.517Z,26.50
2019-04-24T15:43:02.549Z,27.00
2019-04-24T15:48:07.981Z,27.00
2019-04-24T15:52:23.989Z,26.60
2019-04-24T15:54:51.966Z,26.60
2019-04-24T15:57:21.430Z,26.80
2019-04-24T16:00:13.751Z,27.10
2019-04-24T16:02:59.937Z,26.90
2019-04-24T16:04:55.111Z,27.10
2019-04-24T16:07:33.497Z,26.90
2019-04-24T16:10:10.060Z,26.90
2019-04-24T16:12:39.706Z,27.00
2019-04-24T16:15:45.304Z,27.20
2019-04-24T16:18:05.092Z,27.20
2019-04-24T16:21:07.108Z,27.40
2019-04-24T16:23:13.089Z,27.20
2019-04-24T16:25:42.325Z,27.40
2019-04-24T16:30:49.756Z,27.60
2019-04-24T16:33:21.079Z,27.50
2019-04-24T16:35:51.977Z,27.50
2019-04-24T16:38:19.957Z,27.10
2019-04-24T16:43:44.601Z,26.70
2019-04-24T16:46:38.716Z,26.50
2019-04-24T16:54:01.986Z,23.80
2019-04-24T16:56:24.360Z,22.30
2019-04-24T17:04:14.618Z,18.30
2019-04-24T17:11:26.598Z,17.60
2019-04-24T17:14:02.487Z,17.60
2019-04-24T17:16:59.323Z,17.50
2019-04-24T17:24:14.415Z,17.40
2019-04-24T17:26:52.263Z,17.60
2019-04-24T17:29:27.221Z,17.60
2019-04-24T17:34:20.760Z,17.60
2019-04-24T17:36:30.357Z,17.40
2019-04-24T17:38:56.099Z,17.30
2019-04-24T17:41:33.015Z,17.30
2019-04-24T17:44:30.819Z,17.70
2019-04-24T17:47:09.314Z,17.80
2019-04-24T17:51:52.129Z,17.70
2019-04-24T17:56:56.357Z,17.80
2019-04-24T17:58:56.293Z,18.00
2019-04-24T18:01:24.936Z,17.90
2019-04-24T18:03:53.789Z,17.30
2019-04-24T18:06:21.934Z,16.90
2019-04-24T18:08:51.058Z,16.50
2019-04-24T18:11:21.561Z,16.20
2019-04-24T18:13:49.795Z,15.80
2019-04-24T18:16:18.071Z,15.40
2019-04-24T18:18:46.118Z,15.00
2019-04-24T18:21:14.130Z,14.90
2019-04-24T18:23:42.245Z,14.70
2019-04-24T18:26:37.036Z,14.70
2019-04-24T18:29:05.130Z,14.50
2019-04-24T18:31:34.457Z,14.50
2019-04-24T18:34:04.070Z,14.30
2019-04-24T18:36:33.600Z,14.30
2019-04-24T18:39:02.200Z,14.20
2019-04-24T18:41:32.051Z,14.20
2019-04-24T18:44:01.074Z,14.10
2019-04-24T18:46:31.625Z,14.10
2019-04-24T18:49:02.845Z,14.00
2019-04-24T18:51:32.890Z,14.00
2019-04-24T18:54:01.997Z,13.90
2019-04-24T18:56:31.631Z,13.90
2019-04-24T18:59:01.176Z,13.80
2019-04-24T19:01:29.437Z,13.60
2019-04-24T19:03:58.917Z,13.50
2019-04-24T19:06:31.454Z,13.30
2019-04-24T19:08:57.131Z,13.20
2019-04-24T19:11:25.562Z,13.10
2019-04-24T19:13:54.085Z,13.00
2019-04-24T19:16:22.689Z,13.10
2019-04-24T19:18:50.917Z,12.90
2019-04-24T19:21:18.947Z,12.90
2019-04-24T19:23:47.132Z,12.90
2019-04-24T19:26:15.376Z,12.90
2019-04-24T19:28:43.604Z,12.90
2019-04-24T19:31:12.622Z,12.90
2019-04-24T19:33:41.568Z,12.90
2019-04-24T19:36:10.684Z,12.80
2019-04-24T19:38:39.806Z,12.80
2019-04-24T19:41:07.894Z,12.80
2019-04-24T19:43:35.854Z,12.80
2019-04-24T19:46:04.667Z,12.70
2019-04-24T19:48:32.944Z,12.30
2019-04-24T19:51:01.418Z,12.00
2019-04-24T19:53:32.238Z,11.90
2019-04-24T19:56:01.941Z,11.80
2019-04-24T19:58:31.395Z,11.50
2019-04-24T20:00:59.781Z,11.40
2019-04-24T20:03:28.410Z,11.30
2019-04-24T20:05:56.550Z,11.20
2019-04-24T20:08:26.637Z,11.20
2019-04-24T20:11:20.525Z,11.10
2019-04-24T20:13:48.605Z,11.10
2019-04-24T20:16:16.650Z,11.20
2019-04-24T20:18:44.634Z,11.10
2019-04-24T20:21:14.686Z,11.10
2019-04-24T20:23:43.079Z,11.10
2019-04-24T20:26:11.355Z,11.10
2019-04-24T20:28:39.619Z,11.10
2019-04-24T20:31:07.941Z,11.20
2019-04-24T20:33:35.966Z,11.20
2019-04-24T20:36:04.005Z,11.30
2019-04-24T20:38:32.087Z,11.30
2019-04-24T20:41:00.355Z,11.30
2019-04-24T20:43:28.994Z,11.20
2019-04-24T20:45:57.649Z,11.30
2019-04-24T20:48:26.355Z,11.20
2019-04-24T20:50:54.610Z,11.20
2019-04-24T20:53:24.135Z,11.30
2019-04-24T20:55:53.530Z,11.40
2019-04-24T20:58:24.866Z,11.40
2019-04-24T21:00:53.592Z,11.40
2019-04-24T21:03:23.634Z,11.30
2019-04-24T21:06:22.313Z,11.40
2019-04-24T21:09:17.003Z,11.30
2019-04-24T21:11:37.541Z,11.30
2019-04-24T21:14:05.794Z,11.20
2019-04-24T21:16:34.218Z,11.10
2019-04-24T21:19:02.966Z,11.20
2019-04-24T21:21:31.864Z,11.10
2019-04-24T21:24:02.260Z,11.10
2019-04-24T21:26:31.696Z,11.10
2019-04-24T21:29:01.650Z,11.10
2019-04-24T21:31:29.785Z,11.10
2019-04-24T21:33:58.024Z,11.00
2019-04-24T21:36:26.190Z,10.90
2019-04-24T21:38:54.794Z,10.90
2019-04-24T21:41:22.979Z,10.90
2019-04-24T21:43:52.090Z,10.90
2019-04-24T21:46:23.866Z,10.90
2019-04-24T21:48:52.738Z,10.90
2019-04-24T21:51:20.747Z,10.90
2019-04-24T21:53:49.251Z,11.10
2019-04-24T21:56:17.926Z,11.00
2019-04-24T21:58:46.158Z,11.10
2019-04-24T22:01:37.334Z,11.10
2019-04-24T22:04:29.555Z,11.00
2019-04-24T22:07:01.774Z,10.90
2019-04-24T22:09:32.592Z,10.90
2019-04-24T22:12:02.490Z,10.80
2019-04-24T22:14:32.790Z,10.80
2019-04-24T22:17:01.708Z,10.80
2019-04-24T22:19:30.919Z,10.90
2019-04-24T22:22:07.712Z,11.00
2019-04-24T22:24:53.052Z,10.90
2019-04-24T22:27:34.260Z,10.90
2019-04-24T22:30:01.929Z,11.00
2019-04-24T22:32:35.142Z,11.10
2019-04-24T22:35:12.614Z,11.10
2019-04-24T22:37:40.699Z,11.10
2019-04-24T22:40:23.139Z,11.10
2019-04-24T22:42:52.639Z,11.10
2019-04-24T22:45:21.505Z,11.20
2019-04-24T22:47:52.208Z,11.20
2019-04-24T22:50:20.918Z,11.20
2019-04-24T22:52:48.828Z,11.30
2019-04-24T22:55:17.242Z,11.30
2019-04-24T22:57:45.588Z,11.40
2019-04-24T23:00:24.578Z,11.30
2019-04-24T23:02:52.949Z,11.40
2019-04-24T23:05:21.850Z,11.40
2019-04-24T23:07:50.586Z,11.50
2019-04-24T23:10:19.289Z,11.60
2019-04-24T23:12:47.324Z,11.60
2019-04-24T23:15:15.869Z,11.70
2019-04-24T23:17:44.146Z,11.70
2019-04-24T23:20:13.137Z,11.80
2019-04-24T23:23:04.218Z,11.90
2019-04-24T23:25:36.655Z,11.80
2019-04-24T23:28:10.108Z,11.70
2019-04-24T23:30:53.532Z,11.80
2019-04-24T23:33:26.808Z,11.80
2019-04-24T23:35:55.533Z,11.90
2019-04-24T23:38:23.700Z,11.80
2019-04-24T23:40:52.727Z,11.80
2019-04-24T23:43:21.366Z,11.70
2019-04-24T23:45:49.642Z,11.70
2019-04-24T23:48:18.187Z,11.90
2019-04-24T23:50:46.681Z,11.90
2019-04-24T23:53:14.842Z,11.90
2019-04-24T23:55:43.797Z,12.00
2019-04-24T23:58:14.370Z,11.90
